createdAt,value
2023-12-07T00:00:18.634Z,20.45
2023-12-07T00:01:21.123Z,19.52
2023-12-07T00:02:23.746Z,17.92
2023-12-07T00:03:26.158Z,17.40
2023-12-07T00:04:28.628Z,15.93
2023-12-07T00:05:31.047Z,16.20
2023-12-07T00:06:33.445Z,16.15
2023-12-07T00:07:35.847Z,15.70
2023-12-07T00:08:38.112Z,18.83
2023-12-07T00:09:40.497Z,15.43
2023-12-07T00:10:42.954Z,15.43
2023-12-07T00:11:45.494Z,16.80
2023-12-07T00:12:47.836Z,16.92
2023-12-07T00:13:50.321Z,17.38
2023-12-07T00:14:52.584Z,18.00
2023-12-07T00:15:55.004Z,16.98
2023-12-07T00:17:16.032Z,17.95
2023-12-07T00:18:18.353Z,19.30
2023-12-07T00:19:20.668Z,18.88
2023-12-07T00:20:23.081Z,16.67
2023-12-07T00:21:25.523Z,16.70
2023-12-07T00:22:30.006Z,16.85
2023-12-07T00:23:32.407Z,17.20
2023-12-07T00:24:34.631Z,18.40
2023-12-07T00:25:37.007Z,17.67
2023-12-07T00:26:39.639Z,16.08
2023-12-07T00:27:42.747Z,17.40
2023-12-07T00:28:45.021Z,18.53
2023-12-07T00:29:47.348Z,18.58
2023-12-07T00:30:49.650Z,19.02
2023-12-07T00:31:53.326Z,17.88
2023-12-07T00:32:55.616Z,21.35
2023-12-07T00:33:57.977Z,21.42
2023-12-07T00:35:00.518Z,21.25
2023-12-07T00:36:02.814Z,21.45
2023-12-07T00:37:05.133Z,20.15
2023-12-07T00:38:09.691Z,19.85
2023-12-07T00:39:12.394Z,19.37
2023-12-07T00:40:14.779Z,18.98
2023-12-07T00:41:17.171Z,23.15
2023-12-07T00:42:19.499Z,22.67
2023-12-07T00:43:21.892Z,21.45
2023-12-07T00:44:24.236Z,21.75
2023-12-07T00:45:26.461Z,21.85
2023-12-07T00:46:28.825Z,22.27
2023-12-07T00:47:31.120Z,22.05
2023-12-07T00:48:33.416Z,21.95
2023-12-07T00:49:38.776Z,20.70
2023-12-07T00:50:41.107Z,21.45
2023-12-07T00:51:43.414Z,21.83
2023-12-07T00:52:46.615Z,21.48
2023-12-07T00:53:48.955Z,21.80
2023-12-07T00:54:51.222Z,21.80
2023-12-07T00:55:53.586Z,20.77
2023-12-07T00:56:55.907Z,20.63
2023-12-07T00:57:58.134Z,19.95
2023-12-07T00:59:00.500Z,20.45
2023-12-07T01:00:02.911Z,19.07
2023-12-07T01:01:05.384Z,19.17
2023-12-07T01:02:08.105Z,18.92
2023-12-07T01:03:10.394Z,19.50
2023-12-07T01:04:12.833Z,20.70
2023-12-07T01:05:15.263Z,25.10
2023-12-07T01:06:18.275Z,21.50
2023-12-07T01:07:20.708Z,19.48
2023-12-07T01:08:23.122Z,19.42
2023-12-07T01:09:25.792Z,19.60
2023-12-07T01:10:28.131Z,20.20
2023-12-07T01:11:30.706Z,19.95
2023-12-07T01:12:33.101Z,21.15
2023-12-07T01:13:37.413Z,21.08
2023-12-07T01:14:39.929Z,20.10
2023-12-07T01:15:42.290Z,20.23
2023-12-07T01:16:45.339Z,20.25
2023-12-07T01:17:47.862Z,18.40
2023-12-07T01:18:50.135Z,18.05
2023-12-07T01:19:52.852Z,16.98
2023-12-07T01:20:55.222Z,18.50
2023-12-07T01:21:57.501Z,19.98
2023-12-07T01:22:59.800Z,18.52
2023-12-07T01:24:10.780Z,18.73
2023-12-07T01:25:23.586Z,17.33
2023-12-07T01:26:26.580Z,17.52
2023-12-07T01:27:28.878Z,18.30
2023-12-07T01:28:31.286Z,18.67
2023-12-07T01:29:33.755Z,18.45
2023-12-07T01:30:37.734Z,18.45
2023-12-07T01:31:40.207Z,17.83
2023-12-07T01:32:42.509Z,17.05
2023-12-07T01:33:45.506Z,18.45
2023-12-07T01:34:47.949Z,18.70
2023-12-07T01:35:50.371Z,19.15
2023-12-07T01:36:52.650Z,18.30
2023-12-07T01:37:54.912Z,18.55
2023-12-07T01:38:57.181Z,17.90
2023-12-07T01:39:59.480Z,18.02
2023-12-07T01:41:01.898Z,18.58
2023-12-07T01:42:05.177Z,17.33
2023-12-07T01:43:08.079Z,16.95
2023-12-07T01:44:10.467Z,16.50
2023-12-07T01:45:12.802Z,17.75
2023-12-07T01:46:16.227Z,17.50
2023-12-07T01:47:18.794Z,17.45
2023-12-07T01:48:23.142Z,17.88
2023-12-07T01:49:25.440Z,17.50
2023-12-07T01:50:28.587Z,17.23
2023-12-07T01:51:30.971Z,17.42
2023-12-07T01:52:33.769Z,16.50
2023-12-07T01:53:36.220Z,16.55
2023-12-07T01:54:39.885Z,16.70
2023-12-07T01:55:42.709Z,16.92
2023-12-07T01:56:45.212Z,17.23
2023-12-07T01:57:47.596Z,17.17
2023-12-07T01:58:51.156Z,18.13
2023-12-07T01:59:53.627Z,16.98
2023-12-07T02:00:56.416Z,17.13
2023-12-07T02:01:59.291Z,18.00
2023-12-07T02:03:05.688Z,18.50
2023-12-07T02:04:08.125Z,17.08
2023-12-07T02:05:10.807Z,16.58
2023-12-07T02:06:14.801Z,17.65
2023-12-07T02:07:17.347Z,17.02
2023-12-07T02:08:19.755Z,17.92
2023-12-07T02:09:23.833Z,17.75
2023-12-07T02:10:26.795Z,16.77
2023-12-07T02:11:29.185Z,16.90
2023-12-07T02:12:31.529Z,17.48
2023-12-07T02:13:35.104Z,16.63
2023-12-07T02:14:38.045Z,16.27
2023-12-07T02:15:40.486Z,16.05
2023-12-07T02:16:50.182Z,15.10
2023-12-07T02:18:24.800Z,14.95
2023-12-07T02:20:12.506Z,15.40
2023-12-07T02:21:30.669Z,14.43
2023-12-07T02:22:56.563Z,13.43
2023-12-07T02:24:00.260Z,14.98
2023-12-07T02:25:08.733Z,15.82
2023-12-07T02:26:12.978Z,15.63
2023-12-07T02:27:15.380Z,13.82
2023-12-07T02:28:18.669Z,14.35
2023-12-07T02:29:21.294Z,14.82
2023-12-07T02:30:24.081Z,15.77
2023-12-07T02:31:26.594Z,15.43
2023-12-07T02:32:28.849Z,14.95
2023-12-07T02:33:31.426Z,15.20
2023-12-07T02:34:33.972Z,14.68
2023-12-07T02:35:38.345Z,14.68
2023-12-07T02:36:42.606Z,15.23
2023-12-07T02:37:50.564Z,15.52
2023-12-07T02:38:56.716Z,15.60
2023-12-07T02:39:59.324Z,15.10
2023-12-07T02:41:03.215Z,15.45
2023-12-07T02:42:08.226Z,15.00
2023-12-07T02:43:11.574Z,15.00
2023-12-07T02:44:14.356Z,15.93
2023-12-07T02:45:17.209Z,15.48
2023-12-07T02:46:20.030Z,14.38
2023-12-07T02:47:22.614Z,14.87
2023-12-07T02:48:25.417Z,16.33
2023-12-07T02:49:27.899Z,14.68
2023-12-07T02:50:30.340Z,14.93
2023-12-07T02:51:32.663Z,14.82
2023-12-07T02:52:35.791Z,15.55
2023-12-07T02:53:38.088Z,14.95
2023-12-07T02:54:40.614Z,14.98
2023-12-07T02:55:43.457Z,14.63
2023-12-07T02:56:45.766Z,14.23
2023-12-07T02:57:48.042Z,13.90
2023-12-07T02:58:51.148Z,13.88
2023-12-07T02:59:53.439Z,14.35
2023-12-07T03:00:55.844Z,13.45
2023-12-07T03:01:58.376Z,13.60
2023-12-07T03:03:00.814Z,12.43
2023-12-07T03:04:03.207Z,13.23
2023-12-07T03:05:06.325Z,13.60
2023-12-07T03:06:08.816Z,12.88
2023-12-07T03:07:11.240Z,12.10
2023-12-07T03:08:13.861Z,11.77
2023-12-07T03:09:16.237Z,12.38
2023-12-07T03:10:18.561Z,12.57
2023-12-07T03:11:20.757Z,13.52
2023-12-07T03:12:24.732Z,13.30
2023-12-07T03:13:27.363Z,12.50
2023-12-07T03:14:29.864Z,13.30
2023-12-07T03:15:32.334Z,14.65
2023-12-07T03:16:34.803Z,15.70
2023-12-07T03:17:37.372Z,14.48
2023-12-07T03:18:39.754Z,13.53
2023-12-07T03:19:43.103Z,13.32
2023-12-07T03:20:45.493Z,13.48
2023-12-07T03:21:47.874Z,12.25
2023-12-07T03:22:50.216Z,13.00
2023-12-07T03:23:52.604Z,13.77
2023-12-07T03:24:54.919Z,13.55
2023-12-07T03:25:57.234Z,13.70
2023-12-07T03:26:59.588Z,11.70
2023-12-07T03:28:01.906Z,11.48
2023-12-07T03:29:04.190Z,12.53
2023-12-07T03:30:07.187Z,12.43
2023-12-07T03:31:09.550Z,12.38
2023-12-07T03:32:11.806Z,12.73
2023-12-07T03:33:14.342Z,10.98
2023-12-07T03:34:17.133Z,10.55
2023-12-07T03:35:19.490Z,10.45
2023-12-07T03:36:21.827Z,10.50
2023-12-07T03:37:24.272Z,11.15
2023-12-07T03:38:26.533Z,10.90
2023-12-07T03:39:31.078Z,11.07
2023-12-07T03:40:33.644Z,10.85
2023-12-07T03:41:36.168Z,11.07
2023-12-07T03:42:50.922Z,10.90
2023-12-07T03:43:58.887Z,11.20
2023-12-07T03:45:01.187Z,11.02
2023-12-07T03:46:07.620Z,11.02
2023-12-07T03:47:10.451Z,12.57
2023-12-07T03:48:12.753Z,11.85
2023-12-07T03:49:15.205Z,11.40
2023-12-07T03:50:17.554Z,11.00
2023-12-07T03:51:20.192Z,10.55
2023-12-07T03:52:22.803Z,11.63
2023-12-07T03:53:25.364Z,12.23
2023-12-07T03:54:27.622Z,12.38
2023-12-07T03:55:29.977Z,12.02
2023-12-07T03:56:33.453Z,11.90
2023-12-07T03:57:35.890Z,12.18
2023-12-07T03:58:38.458Z,12.05
2023-12-07T03:59:40.895Z,12.27
2023-12-07T04:00:43.192Z,12.60
2023-12-07T04:01:45.645Z,12.43
2023-12-07T04:02:48.122Z,12.93
2023-12-07T04:03:50.462Z,13.50
2023-12-07T04:04:52.776Z,11.55
2023-12-07T04:05:55.014Z,11.95
2023-12-07T04:06:57.599Z,11.60
2023-12-07T04:08:00.425Z,11.50
2023-12-07T04:09:02.830Z,12.57
2023-12-07T04:10:07.627Z,12.80
2023-12-07T04:11:10.028Z,11.83
2023-12-07T04:12:12.255Z,12.18
2023-12-07T04:13:14.771Z,12.05
2023-12-07T04:14:17.430Z,12.32
2023-12-07T04:15:21.219Z,10.70
2023-12-07T04:16:23.734Z,9.30
2023-12-07T04:17:25.971Z,10.52
2023-12-07T04:18:28.428Z,10.80
2023-12-07T04:19:30.787Z,9.23
2023-12-07T04:20:33.296Z,10.25
2023-12-07T04:21:35.693Z,9.93
2023-12-07T04:22:38.123Z,10.07
2023-12-07T04:23:40.490Z,10.65
2023-12-07T04:24:42.762Z,11.23
2023-12-07T04:25:45.194Z,11.35
2023-12-07T04:26:47.552Z,12.07
2023-12-07T04:27:49.894Z,10.77
2023-12-07T04:28:52.192Z,11.27
2023-12-07T04:29:54.418Z,10.43
2023-12-07T04:30:56.846Z,11.07
2023-12-07T04:31:59.157Z,10.30
2023-12-07T04:33:01.543Z,10.68
2023-12-07T04:34:04.021Z,10.65
2023-12-07T04:35:08.168Z,10.50
2023-12-07T04:36:10.743Z,10.25
2023-12-07T04:37:13.042Z,10.20
2023-12-07T04:38:15.633Z,10.65
2023-12-07T04:39:18.177Z,10.15
2023-12-07T04:40:20.516Z,10.20
2023-12-07T04:41:23.012Z,10.45
2023-12-07T04:42:25.612Z,10.87
2023-12-07T04:43:28.171Z,11.07
2023-12-07T04:44:30.569Z,11.27
2023-12-07T04:45:32.963Z,11.40
2023-12-07T04:46:36.702Z,11.98
2023-12-07T04:47:39.485Z,11.60
2023-12-07T04:48:41.966Z,11.05
2023-12-07T04:49:44.343Z,12.95
2023-12-07T04:50:46.635Z,11.80
2023-12-07T04:51:48.982Z,11.27
2023-12-07T04:52:51.806Z,11.40
2023-12-07T04:54:00.494Z,11.95
2023-12-07T04:55:09.258Z,11.23
2023-12-07T04:56:11.609Z,11.52
2023-12-07T04:57:13.805Z,11.80
2023-12-07T04:58:17.235Z,11.10
2023-12-07T04:59:19.573Z,9.80
2023-12-07T05:00:22.997Z,9.95
2023-12-07T05:01:25.457Z,10.93
2023-12-07T05:02:29.258Z,11.70
2023-12-07T05:03:31.548Z,11.70
2023-12-07T05:04:34.743Z,11.40
2023-12-07T05:05:37.755Z,9.45
2023-12-07T05:06:40.050Z,9.05
2023-12-07T05:07:42.867Z,8.73
2023-12-07T05:08:45.204Z,8.73
2023-12-07T05:09:47.499Z,9.50
2023-12-07T05:10:49.839Z,9.77
2023-12-07T05:11:52.272Z,9.60
2023-12-07T05:12:54.676Z,9.75
2023-12-07T05:13:56.970Z,9.07
2023-12-07T05:14:59.234Z,9.32
2023-12-07T05:16:01.632Z,8.85
2023-12-07T05:17:04.289Z,9.07
2023-12-07T05:18:07.222Z,8.55
2023-12-07T05:19:09.654Z,9.10
2023-12-07T05:20:13.960Z,9.10
2023-12-07T05:21:16.215Z,9.10
2023-12-07T05:22:18.564Z,9.23
2023-12-07T05:23:21.064Z,10.60
2023-12-07T05:24:24.097Z,9.50
2023-12-07T05:25:26.474Z,9.43
2023-12-07T05:26:28.748Z,9.35
2023-12-07T05:27:30.988Z,9.43
2023-12-07T05:28:33.332Z,9.68
2023-12-07T05:29:35.659Z,9.48
2023-12-07T05:30:38.273Z,10.55
2023-12-07T05:31:41.479Z,10.45
2023-12-07T05:32:44.369Z,10.20
2023-12-07T05:33:46.811Z,10.65
2023-12-07T05:34:49.065Z,10.63
2023-12-07T05:35:51.426Z,9.60
2023-12-07T05:36:53.796Z,10.20
2023-12-07T05:37:56.206Z,10.63
2023-12-07T05:38:58.931Z,9.95
2023-12-07T05:40:01.325Z,10.57
2023-12-07T05:41:04.643Z,9.63
2023-12-07T05:42:07.697Z,10.40
2023-12-07T05:43:10.221Z,10.52
2023-12-07T05:44:12.577Z,10.82
2023-12-07T05:45:15.097Z,10.13
2023-12-07T05:46:17.308Z,10.50
2023-12-07T05:47:19.709Z,9.23
2023-12-07T05:48:22.121Z,11.50
2023-12-07T05:49:24.834Z,10.77
2023-12-07T05:50:27.951Z,11.73
2023-12-07T05:51:30.251Z,10.73
2023-12-07T05:52:32.831Z,10.60
2023-12-07T05:53:35.168Z,10.90
2023-12-07T05:54:37.469Z,9.82
2023-12-07T05:55:41.322Z,10.00
2023-12-07T05:56:44.530Z,10.15
2023-12-07T05:57:47.902Z,10.50
2023-12-07T05:58:50.404Z,10.43
2023-12-07T05:59:52.703Z,10.80
2023-12-07T06:00:55.102Z,10.13
2023-12-07T06:01:57.519Z,10.55
2023-12-07T06:03:00.806Z,10.38
2023-12-07T06:04:03.259Z,10.20
2023-12-07T06:05:06.447Z,9.90
2023-12-07T06:06:09.021Z,9.93
2023-12-07T06:07:11.481Z,10.15
2023-12-07T06:08:13.860Z,10.63
2023-12-07T06:09:16.193Z,11.13
2023-12-07T06:10:18.640Z,10.48
2023-12-07T06:11:21.050Z,10.75
2023-12-07T06:12:23.704Z,10.18
2023-12-07T06:13:26.179Z,10.52
2023-12-07T06:14:28.460Z,10.35
2023-12-07T06:15:30.768Z,9.90
2023-12-07T06:16:33.049Z,9.33
2023-12-07T06:17:35.641Z,8.05
2023-12-07T06:18:39.395Z,8.57
2023-12-07T06:19:41.728Z,8.20
2023-12-07T06:20:44.598Z,9.27
2023-12-07T06:21:47.041Z,8.68
2023-12-07T06:22:49.550Z,9.00
2023-12-07T06:23:52.332Z,9.95
2023-12-07T06:24:54.722Z,8.98
2023-12-07T06:25:56.937Z,8.07
2023-12-07T06:27:00.817Z,7.53
2023-12-07T06:28:03.126Z,7.22
2023-12-07T06:29:05.427Z,7.22
2023-12-07T06:30:08.321Z,6.80
2023-12-07T06:31:11.158Z,7.55
2023-12-07T06:32:13.389Z,7.72
2023-12-07T06:33:15.685Z,10.40
2023-12-07T06:34:18.231Z,9.90
2023-12-07T06:35:21.784Z,9.05
2023-12-07T06:36:25.414Z,9.27
2023-12-07T06:37:27.962Z,7.20
2023-12-07T06:38:31.242Z,8.45
2023-12-07T06:39:34.032Z,7.78
2023-12-07T06:40:36.388Z,8.75
2023-12-07T06:41:38.674Z,10.55
2023-12-07T06:42:41.085Z,30.85
2023-12-07T06:43:45.726Z,74.15
2023-12-07T06:44:50.556Z,21.60
2023-12-07T06:45:54.327Z,21.75
2023-12-07T06:46:56.595Z,14.45
2023-12-07T06:47:58.850Z,13.73
2023-12-07T06:49:01.753Z,11.95
2023-12-07T06:50:06.508Z,12.32
2023-12-07T06:51:09.547Z,21.02
2023-12-07T06:52:12.500Z,15.18
2023-12-07T06:53:17.237Z,16.15
2023-12-07T06:54:19.511Z,14.25
2023-12-07T06:55:21.896Z,20.83
2023-12-07T06:56:24.467Z,15.65
2023-12-07T06:57:27.017Z,17.65
2023-12-07T06:58:29.851Z,13.80
2023-12-07T06:59:32.175Z,13.52
2023-12-07T07:00:34.500Z,12.75
2023-12-07T07:01:36.840Z,15.93
2023-12-07T07:02:40.662Z,14.30
2023-12-07T07:03:43.044Z,14.32
2023-12-07T07:04:45.891Z,14.27
2023-12-07T07:05:48.479Z,15.60
2023-12-07T07:06:50.921Z,22.60
2023-12-07T07:07:53.195Z,28.73
2023-12-07T07:08:57.956Z,18.97
2023-12-07T07:10:01.679Z,18.85
2023-12-07T07:11:12.726Z,17.88
2023-12-07T07:12:15.062Z,17.45
2023-12-07T07:13:18.710Z,16.05
2023-12-07T07:14:21.273Z,23.77
2023-12-07T07:15:26.765Z,16.17
2023-12-07T07:16:29.138Z,15.85
2023-12-07T07:17:31.524Z,13.18
2023-12-07T07:18:33.844Z,12.90
2023-12-07T07:19:36.295Z,11.20
2023-12-07T07:20:39.088Z,11.10
2023-12-07T07:21:41.489Z,11.57
2023-12-07T07:22:43.799Z,11.20
2023-12-07T07:23:46.102Z,10.52
2023-12-07T07:24:48.942Z,9.40
2023-12-07T07:25:51.310Z,9.40
2023-12-07T07:26:53.661Z,8.80
2023-12-07T07:27:58.364Z,8.40
2023-12-07T07:29:00.816Z,9.10
2023-12-07T07:30:05.921Z,8.90
2023-12-07T07:31:08.303Z,10.10
2023-12-07T07:32:10.632Z,8.48
2023-12-07T07:33:13.003Z,9.80
2023-12-07T07:34:15.413Z,7.78
2023-12-07T07:35:17.904Z,14.57
2023-12-07T07:36:20.412Z,15.27
2023-12-07T07:37:22.948Z,12.82
2023-12-07T07:38:25.667Z,11.18
2023-12-07T07:39:27.952Z,10.95
2023-12-07T07:40:30.266Z,13.00
2023-12-07T07:41:32.622Z,11.48
2023-12-07T07:42:35.199Z,10.30
2023-12-07T07:43:37.515Z,10.07
2023-12-07T07:44:39.995Z,9.80
2023-12-07T07:45:42.306Z,9.52
2023-12-07T07:46:44.686Z,8.70
2023-12-07T07:47:47.145Z,8.60
2023-12-07T07:48:49.547Z,8.00
2023-12-07T07:49:52.237Z,9.02
2023-12-07T07:50:54.627Z,10.17
2023-12-07T07:51:56.964Z,8.20
2023-12-07T07:52:59.275Z,7.57
2023-12-07T07:54:01.775Z,8.57
2023-12-07T07:55:06.156Z,8.50
2023-12-07T07:56:10.154Z,8.45
2023-12-07T07:57:12.408Z,8.50
2023-12-07T07:58:14.670Z,8.15
2023-12-07T07:59:17.261Z,7.93
2023-12-07T08:00:20.650Z,8.48
2023-12-07T08:01:23.067Z,8.30
2023-12-07T08:02:25.671Z,8.45
2023-12-07T08:03:27.935Z,9.23
2023-12-07T08:04:30.185Z,10.02
2023-12-07T08:05:32.609Z,10.10
2023-12-07T08:06:37.660Z,10.07
2023-12-07T08:07:42.040Z,10.10
2023-12-07T08:08:44.468Z,10.90
2023-12-07T08:09:46.813Z,10.77
2023-12-07T08:10:54.888Z,10.40
2023-12-07T08:11:58.894Z,11.00
2023-12-07T08:13:01.203Z,11.13
2023-12-07T08:14:03.522Z,11.82
2023-12-07T08:15:06.747Z,11.43
2023-12-07T08:16:10.726Z,10.23
2023-12-07T08:17:13.573Z,9.82
2023-12-07T08:18:16.077Z,9.05
2023-12-07T08:19:18.552Z,8.77
2023-12-07T08:20:20.938Z,8.52
2023-12-07T08:21:29.904Z,8.70
2023-12-07T08:22:34.064Z,8.13
2023-12-07T08:23:37.022Z,8.50
2023-12-07T08:24:41.069Z,7.90
2023-12-07T08:25:45.010Z,7.70
2023-12-07T08:26:47.496Z,9.32
2023-12-07T08:27:50.394Z,7.40
2023-12-07T08:28:55.671Z,9.93
2023-12-07T08:29:58.091Z,12.35
2023-12-07T08:31:00.550Z,10.70
2023-12-07T08:32:02.936Z,13.07
2023-12-07T08:33:05.435Z,7.75
2023-12-07T08:34:08.277Z,6.90
2023-12-07T08:35:10.696Z,7.13
2023-12-07T08:36:13.082Z,7.00
2023-12-07T08:37:15.385Z,6.47
2023-12-07T08:38:17.826Z,6.85
2023-12-07T08:39:20.151Z,6.95
2023-12-07T08:40:23.300Z,7.20
2023-12-07T08:41:25.732Z,9.68
2023-12-07T08:42:28.090Z,9.80
2023-12-07T08:43:31.941Z,13.25
2023-12-07T08:44:34.417Z,10.80
2023-12-07T08:45:40.001Z,8.00
2023-12-07T08:46:45.222Z,9.15
2023-12-07T08:47:47.710Z,9.38
2023-12-07T08:48:50.124Z,9.43
2023-12-07T08:49:52.744Z,9.30
2023-12-07T08:50:55.166Z,8.68
2023-12-07T08:52:16.302Z,8.68
2023-12-07T08:53:22.272Z,8.30
2023-12-07T08:54:24.570Z,7.57
2023-12-07T08:55:26.988Z,7.50
2023-12-07T08:56:29.311Z,8.05
2023-12-07T08:57:31.743Z,8.30
2023-12-07T08:58:34.337Z,8.10
2023-12-07T08:59:36.698Z,7.80
2023-12-07T09:00:39.878Z,9.95
2023-12-07T09:01:42.303Z,8.60
2023-12-07T09:02:47.521Z,11.02
2023-12-07T09:03:50.647Z,8.48
2023-12-07T09:04:53.364Z,8.25
2023-12-07T09:05:56.218Z,7.70
2023-12-07T09:06:58.592Z,7.57
2023-12-07T09:08:01.319Z,7.65
2023-12-07T09:09:05.763Z,7.30
2023-12-07T09:10:10.490Z,7.45
2023-12-07T09:11:12.982Z,7.68
2023-12-07T09:12:18.945Z,9.90
2023-12-07T09:13:24.688Z,7.13
2023-12-07T09:14:27.992Z,6.90
2023-12-07T09:15:30.268Z,6.72
2023-12-07T09:16:32.532Z,7.77
2023-12-07T09:17:35.181Z,6.88
2023-12-07T09:18:37.846Z,4.50
2023-12-07T09:19:40.157Z,3.05
2023-12-07T09:20:47.637Z,2.25
2023-12-07T09:21:50.111Z,2.35
2023-12-07T09:22:52.988Z,2.60
2023-12-07T09:23:55.301Z,2.00
2023-12-07T09:24:58.039Z,2.17
2023-12-07T09:26:00.390Z,2.10
2023-12-07T09:27:02.650Z,2.00
2023-12-07T09:28:05.830Z,2.03
2023-12-07T09:29:10.272Z,2.10
2023-12-07T09:30:13.939Z,2.78
2023-12-07T09:31:18.423Z,2.00
2023-12-07T09:32:24.927Z,2.10
2023-12-07T09:33:32.811Z,2.13
2023-12-07T09:34:35.493Z,2.08
2023-12-07T09:35:37.889Z,2.10
2023-12-07T09:36:40.129Z,2.30
2023-12-07T09:37:42.753Z,1.97
2023-12-07T09:38:45.148Z,1.90
2023-12-07T09:39:47.448Z,2.33
2023-12-07T09:40:54.742Z,2.20
2023-12-07T09:41:57.229Z,2.10
2023-12-07T09:42:59.831Z,1.88
2023-12-07T09:44:02.365Z,1.77
2023-12-07T09:45:06.343Z,1.80
2023-12-07T09:46:09.207Z,2.00
2023-12-07T09:47:13.234Z,1.75
2023-12-07T09:48:17.023Z,2.37
2023-12-07T09:49:19.493Z,2.08
2023-12-07T09:50:24.040Z,2.00
2023-12-07T09:51:28.566Z,2.03
2023-12-07T09:52:32.941Z,1.77
2023-12-07T09:53:36.267Z,2.08
2023-12-07T09:54:42.306Z,2.53
2023-12-07T09:55:44.730Z,2.40
2023-12-07T09:56:48.064Z,2.83
2023-12-07T09:57:52.081Z,2.83
2023-12-07T09:58:54.898Z,3.73
2023-12-07T09:59:58.058Z,3.70
2023-12-07T10:01:00.858Z,3.78
2023-12-07T10:02:06.911Z,3.17
2023-12-07T10:03:22.356Z,3.15
2023-12-07T10:04:27.753Z,2.90
2023-12-07T10:05:30.515Z,4.45
2023-12-07T10:06:47.657Z,2.88
2023-12-07T10:07:52.475Z,2.40
2023-12-07T10:09:05.722Z,2.50
2023-12-07T10:10:09.036Z,2.40
2023-12-07T10:11:16.603Z,2.72
2023-12-07T10:12:18.940Z,2.60
2023-12-07T10:13:21.200Z,1.90
2023-12-07T10:14:23.628Z,2.10
2023-12-07T10:15:30.251Z,1.92
2023-12-07T10:16:36.480Z,1.90
2023-12-07T10:17:56.202Z,1.65
2023-12-07T10:18:59.954Z,2.00
2023-12-07T10:20:11.222Z,1.88
2023-12-07T10:21:15.075Z,2.20
2023-12-07T10:22:18.152Z,2.17
2023-12-07T10:23:20.577Z,2.20
2023-12-07T10:24:25.267Z,3.28
2023-12-07T10:25:28.019Z,4.30
2023-12-07T10:26:33.714Z,4.07
2023-12-07T10:27:39.730Z,2.20
2023-12-07T10:28:42.997Z,2.78
2023-12-07T10:29:49.079Z,2.20
2023-12-07T10:30:52.841Z,2.33
2023-12-07T10:32:06.625Z,2.20
2023-12-07T10:33:09.354Z,4.22
2023-12-07T10:34:14.332Z,2.38
2023-12-07T10:35:20.432Z,2.10
2023-12-07T10:36:25.198Z,2.10
2023-12-07T10:37:28.389Z,2.00
2023-12-07T10:38:33.957Z,2.47
2023-12-07T10:39:36.432Z,2.58
2023-12-07T10:40:39.093Z,2.20
2023-12-07T10:41:46.057Z,2.20
2023-12-07T10:43:00.568Z,2.27
2023-12-07T10:44:08.130Z,2.03
2023-12-07T10:45:19.121Z,2.15
2023-12-07T10:46:24.858Z,1.90
2023-12-07T10:47:29.810Z,2.05
2023-12-07T10:48:34.214Z,1.83
2023-12-07T10:49:47.267Z,2.20
2023-12-07T10:50:56.615Z,2.10
2023-12-07T10:52:02.241Z,2.22
2023-12-07T10:53:43.723Z,1.48
2023-12-07T10:54:57.991Z,2.00
2023-12-07T10:56:08.895Z,1.65
2023-12-07T10:57:17.078Z,2.45
2023-12-07T10:58:21.494Z,2.45
2023-12-07T10:59:32.776Z,1.80
2023-12-07T11:00:44.597Z,1.60
2023-12-07T11:01:49.388Z,1.80
2023-12-07T11:02:54.152Z,1.77
2023-12-07T11:03:58.525Z,1.80
2023-12-07T11:05:04.793Z,2.10
2023-12-07T11:06:07.979Z,2.53
2023-12-07T11:07:18.591Z,3.15
2023-12-07T11:08:29.014Z,6.32
2023-12-07T11:09:36.846Z,1.80
2023-12-07T11:10:57.766Z,1.90
2023-12-07T11:12:09.340Z,1.77
2023-12-07T11:13:37.989Z,1.90
2023-12-07T11:14:41.038Z,1.70
2023-12-07T11:15:43.721Z,1.70
2023-12-07T11:16:48.563Z,1.67
2023-12-07T11:17:58.214Z,1.60
2023-12-07T11:19:02.203Z,1.90
2023-12-07T11:20:07.769Z,2.03
2023-12-07T11:21:11.619Z,1.60
2023-12-07T11:22:15.948Z,1.55
2023-12-07T11:23:21.185Z,1.73
2023-12-07T11:24:27.721Z,1.90
2023-12-07T11:25:33.638Z,1.67
2023-12-07T11:26:37.650Z,1.50
2023-12-07T11:27:40.712Z,1.60
2023-12-07T11:28:43.283Z,1.40
2023-12-07T11:29:49.461Z,1.58
2023-12-07T11:30:56.396Z,1.88
2023-12-07T11:32:16.716Z,1.90
2023-12-07T11:33:25.255Z,1.90
2023-12-07T11:34:43.865Z,2.30
2023-12-07T11:36:04.747Z,2.70
2023-12-07T11:37:09.736Z,2.60
2023-12-07T11:38:15.022Z,2.60
2023-12-07T11:39:26.549Z,2.60
2023-12-07T11:40:36.801Z,2.40
2023-12-07T11:41:45.407Z,2.90
2023-12-07T11:42:50.799Z,2.63
2023-12-07T11:43:59.240Z,2.70
2023-12-07T11:45:04.957Z,2.80
2023-12-07T11:46:10.442Z,2.70
2023-12-07T11:47:23.257Z,2.85
2023-12-07T11:48:29.002Z,2.67
2023-12-07T11:49:36.235Z,3.33
2023-12-07T11:51:06.706Z,2.97
2023-12-07T11:52:24.400Z,2.60
2023-12-07T11:53:35.279Z,2.28
2023-12-07T11:54:37.616Z,2.80
2023-12-07T11:55:41.903Z,2.47
2023-12-07T11:56:45.415Z,2.50
2023-12-07T11:57:49.030Z,2.60
2023-12-07T11:58:54.362Z,2.95
2023-12-07T12:00:00.458Z,2.65
2023-12-07T12:01:06.037Z,3.75
2023-12-07T12:02:11.433Z,2.80
2023-12-07T12:03:17.244Z,2.60
2023-12-07T12:04:22.764Z,2.70
2023-12-07T12:05:29.588Z,2.60
2023-12-07T12:06:36.160Z,2.80
2023-12-07T12:07:40.706Z,2.45
2023-12-07T12:08:44.755Z,3.08
2023-12-07T12:09:49.644Z,2.38
2023-12-07T12:11:03.008Z,2.42
2023-12-07T12:12:07.264Z,3.05
2023-12-07T12:13:16.185Z,2.40
2023-12-07T12:14:21.995Z,2.70
2023-12-07T12:15:29.142Z,2.40
2023-12-07T12:16:36.576Z,2.70
2023-12-07T12:17:42.928Z,3.00
2023-12-07T12:18:47.862Z,3.10
2023-12-07T12:19:56.363Z,3.10
2023-12-07T12:21:03.124Z,3.08
2023-12-07T12:22:08.661Z,3.53
2023-12-07T12:23:12.875Z,2.72
2023-12-07T12:24:18.300Z,3.00
2023-12-07T12:25:35.526Z,2.90
2023-12-07T12:26:44.672Z,3.60
2023-12-07T12:27:57.576Z,3.22
2023-12-07T12:29:01.456Z,3.03
2023-12-07T12:30:07.742Z,3.22
2023-12-07T12:31:14.548Z,3.33
2023-12-07T12:32:19.075Z,3.20
2023-12-07T12:33:26.649Z,3.28
2023-12-07T12:34:32.174Z,4.10
2023-12-07T12:35:36.108Z,3.90
2023-12-07T12:36:40.781Z,3.90
2023-12-07T12:37:45.750Z,3.97
2023-12-07T12:38:53.320Z,4.07
2023-12-07T12:39:59.062Z,3.70
2023-12-07T12:41:02.526Z,3.38
2023-12-07T12:42:07.567Z,3.55
2023-12-07T12:43:12.221Z,3.50
2023-12-07T12:44:21.444Z,3.50
2023-12-07T12:45:30.243Z,3.58
2023-12-07T12:46:34.068Z,4.03
2023-12-07T12:47:39.336Z,4.30
2023-12-07T12:49:02.413Z,3.80
2023-12-07T12:50:06.744Z,3.40
2023-12-07T12:51:15.896Z,4.00
2023-12-07T12:52:18.725Z,3.40
2023-12-07T12:53:22.824Z,3.13
2023-12-07T12:54:34.142Z,3.20
2023-12-07T12:55:42.663Z,2.90
2023-12-07T12:56:48.029Z,2.60
2023-12-07T12:57:56.675Z,3.05
2023-12-07T12:59:04.249Z,3.53
2023-12-07T13:00:10.768Z,3.78
2023-12-07T13:01:15.498Z,3.50
2023-12-07T13:02:21.775Z,3.47
2023-12-07T13:03:24.853Z,3.30
2023-12-07T13:04:27.409Z,2.80
2023-12-07T13:05:31.378Z,3.15
2023-12-07T13:06:35.123Z,2.78
2023-12-07T13:07:38.554Z,2.88
2023-12-07T13:08:44.989Z,3.20
2023-12-07T13:09:50.078Z,3.20
2023-12-07T13:10:54.955Z,3.28
2023-12-07T13:12:01.391Z,3.25
2023-12-07T13:13:10.463Z,2.90
2023-12-07T13:14:13.632Z,2.70
2023-12-07T13:15:17.563Z,3.33
2023-12-07T13:16:24.499Z,3.60
2023-12-07T13:17:30.242Z,3.80
2023-12-07T13:18:35.448Z,4.20
2023-12-07T13:19:58.862Z,4.32
2023-12-07T13:21:05.558Z,3.67
2023-12-07T13:22:11.150Z,3.45
2023-12-07T13:23:13.700Z,3.50
2023-12-07T13:24:21.302Z,3.90
2023-12-07T13:25:26.953Z,4.60
2023-12-07T13:26:32.335Z,5.30
2023-12-07T13:27:37.562Z,5.10
2023-12-07T13:28:41.782Z,4.88
2023-12-07T13:29:44.718Z,5.85
2023-12-07T13:30:47.208Z,5.50
2023-12-07T13:31:53.240Z,5.97
2023-12-07T13:32:58.278Z,5.80
2023-12-07T13:34:04.383Z,5.88
2023-12-07T13:35:12.084Z,5.80
2023-12-07T13:36:15.428Z,5.03
2023-12-07T13:37:19.294Z,4.85
2023-12-07T13:38:22.066Z,6.10
2023-12-07T13:39:30.640Z,6.07
2023-12-07T13:40:38.653Z,7.07
2023-12-07T13:41:44.458Z,6.03
2023-12-07T13:42:47.575Z,6.77
2023-12-07T13:43:51.897Z,6.30
2023-12-07T13:44:58.955Z,6.20
2023-12-07T13:46:03.144Z,7.07
2023-12-07T13:47:06.388Z,7.80
2023-12-07T13:48:09.915Z,7.85
2023-12-07T13:49:21.826Z,7.97
2023-12-07T13:50:37.562Z,8.10
2023-12-07T13:51:41.264Z,8.27
2023-12-07T13:52:45.295Z,8.98
2023-12-07T13:53:48.142Z,10.13
2023-12-07T13:54:54.154Z,8.25
2023-12-07T13:55:59.153Z,8.45
2023-12-07T13:57:06.430Z,8.15
2023-12-07T13:58:11.212Z,8.63
2023-12-07T13:59:15.042Z,6.85
2023-12-07T14:00:21.580Z,6.63
2023-12-07T14:01:24.323Z,5.90